createdAt,value
2017-07-04T00:00:24.925Z,0
2017-07-04T00:00:51.057Z,0
2017-07-04T00:01:17.197Z,0
2017-07-04T00:01:43.340Z,0
2017-07-04T00:02:09.485Z,0
2017-07-04T00:02:35.623Z,0
2017-07-04T00:03:01.775Z,0
2017-07-04T00:03:27.910Z,0
2017-07-04T00:03:54.039Z,0
2017-07-04T00:04:20.185Z,0
2017-07-04T00:04:46.353Z,0
2017-07-04T00:05:12.482Z,0
2017-07-04T00:05:38.624Z,0
2017-07-04T00:06:04.754Z,0
2017-07-04T00:06:30.909Z,0
2017-07-04T00:06:57.043Z,0
2017-07-04T00:07:23.175Z,0
2017-07-04T00:07:49.319Z,0
2017-07-04T00:08:15.461Z,0
2017-07-04T00:08:41.588Z,0
2017-07-04T00:09:07.739Z,0
2017-07-04T00:09:33.885Z,0
2017-07-04T00:10:00.014Z,0
2017-07-04T00:10:26.154Z,0
2017-07-04T00:10:52.324Z,0
2017-07-04T00:11:18.457Z,0
2017-07-04T00:11:44.638Z,0
2017-07-04T00:12:10.752Z,0
2017-07-04T00:12:36.896Z,0
2017-07-04T00:13:03.044Z,0
2017-07-04T00:13:29.393Z,0
2017-07-04T00:13:55.546Z,0
2017-07-04T00:14:21.730Z,0
2017-07-04T00:14:47.854Z,0
2017-07-04T00:15:13.993Z,0
2017-07-04T00:15:40.137Z,0
2017-07-04T00:16:06.281Z,0
2017-07-04T00:16:32.403Z,0
2017-07-04T00:16:58.544Z,0
2017-07-04T00:17:24.692Z,0
2017-07-04T00:17:50.843Z,0
2017-07-04T00:18:16.981Z,0
2017-07-04T00:18:43.159Z,0
2017-07-04T00:19:09.305Z,0
2017-07-04T00:19:35.438Z,0
2017-07-04T00:20:01.567Z,0
2017-07-04T00:20:27.719Z,0
2017-07-04T00:20:53.908Z,0
2017-07-04T00:21:20.042Z,0
2017-07-04T00:21:46.186Z,0
2017-07-04T00:22:12.328Z,0
2017-07-04T00:22:38.467Z,0
2017-07-04T00:23:04.631Z,0
2017-07-04T00:23:30.745Z,0
2017-07-04T00:23:56.898Z,0
2017-07-04T00:24:23.033Z,0
2017-07-04T00:24:49.161Z,0
2017-07-04T00:25:15.312Z,0
2017-07-04T00:25:41.503Z,0
2017-07-04T00:26:07.615Z,0
2017-07-04T00:26:33.760Z,0
2017-07-04T00:26:59.905Z,0
2017-07-04T00:27:26.030Z,0
2017-07-04T00:27:52.172Z,0
2017-07-04T00:28:18.318Z,0
2017-07-04T00:28:44.447Z,0
2017-07-04T00:29:10.586Z,0
2017-07-04T00:29:36.732Z,0
2017-07-04T00:30:02.866Z,0
2017-07-04T00:30:28.997Z,0
2017-07-04T00:30:55.150Z,0
2017-07-04T00:31:21.286Z,0
2017-07-04T00:31:47.421Z,0
2017-07-04T00:32:13.587Z,0
2017-07-04T00:32:39.730Z,0
2017-07-04T00:33:05.861Z,0
2017-07-04T00:33:32.023Z,0
2017-07-04T00:33:58.154Z,0
2017-07-04T00:34:24.352Z,0
2017-07-04T00:34:50.490Z,0
2017-07-04T00:35:16.621Z,0
2017-07-04T00:35:42.766Z,0
2017-07-04T00:36:08.903Z,0
2017-07-04T00:36:35.033Z,0
2017-07-04T00:37:01.987Z,0
2017-07-04T00:37:29.938Z,0
2017-07-04T00:37:56.472Z,0
2017-07-04T00:38:24.011Z,0
2017-07-04T00:38:51.741Z,0
2017-07-04T00:39:19.230Z,0
2017-07-04T00:39:45.301Z,0
2017-07-04T00:40:11.433Z,0
2017-07-04T00:40:37.605Z,0
2017-07-04T00:41:03.750Z,0
2017-07-04T00:41:29.879Z,0
2017-07-04T00:41:56.017Z,0
2017-07-04T00:42:22.165Z,0
2017-07-04T00:42:48.316Z,0
2017-07-04T00:43:14.453Z,0
2017-07-04T00:43:40.597Z,0
2017-07-04T00:44:06.733Z,0
2017-07-04T00:44:32.891Z,0
2017-07-04T00:44:59.036Z,0
2017-07-04T00:45:25.177Z,0
2017-07-04T00:45:51.322Z,0
2017-07-04T00:46:17.454Z,0
2017-07-04T00:46:43.595Z,0
2017-07-04T00:47:09.739Z,0
2017-07-04T00:47:35.872Z,0
2017-07-04T00:48:02.003Z,0
2017-07-04T00:48:28.156Z,0
2017-07-04T00:48:54.291Z,0
2017-07-04T00:49:20.420Z,0
2017-07-04T00:49:46.562Z,0
2017-07-04T00:50:12.702Z,0
2017-07-04T00:50:38.840Z,0
2017-07-04T00:51:04.976Z,0
2017-07-04T00:51:31.104Z,0
2017-07-04T00:51:57.252Z,0
2017-07-04T00:52:23.388Z,0
2017-07-04T00:52:49.539Z,0
2017-07-04T00:53:15.699Z,0
2017-07-04T00:53:41.837Z,0
2017-07-04T00:54:07.965Z,0
2017-07-04T00:54:34.103Z,0
2017-07-04T00:55:00.255Z,0
2017-07-04T00:55:26.382Z,0
2017-07-04T00:55:52.523Z,0
2017-07-04T00:56:18.657Z,0
2017-07-04T00:56:44.806Z,0
2017-07-04T00:57:10.949Z,0
2017-07-04T00:57:37.083Z,0
2017-07-04T00:58:03.222Z,0
2017-07-04T00:58:29.369Z,0
2017-07-04T00:58:55.495Z,0
2017-07-04T00:59:21.989Z,0
2017-07-04T00:59:49.717Z,0
2017-07-04T01:00:17.452Z,0
2017-07-04T01:00:44.726Z,0
2017-07-04T01:01:12.979Z,0
2017-07-04T01:01:39.321Z,0
2017-07-04T01:02:07.133Z,0
2017-07-04T01:02:34.170Z,0
2017-07-04T01:03:00.939Z,0
2017-07-04T01:03:28.666Z,0
2017-07-04T01:03:57.011Z,0
2017-07-04T01:04:23.871Z,0
2017-07-04T01:04:50.017Z,0
2017-07-04T01:05:16.152Z,0
2017-07-04T01:05:42.283Z,0
2017-07-04T01:06:08.434Z,0
2017-07-04T01:06:34.566Z,0
2017-07-04T01:07:00.694Z,0
2017-07-04T01:07:26.839Z,0
2017-07-04T01:07:52.974Z,0
2017-07-04T01:08:19.120Z,0
2017-07-04T01:08:45.255Z,0
2017-07-04T01:09:11.390Z,0
2017-07-04T01:09:37.533Z,0
2017-07-04T01:10:03.672Z,0
2017-07-04T01:10:29.802Z,0
2017-07-04T01:10:55.951Z,0
2017-07-04T01:11:22.094Z,0
2017-07-04T01:11:48.222Z,0
2017-07-04T01:12:14.362Z,0
2017-07-04T01:12:40.508Z,0
2017-07-04T01:13:06.637Z,0
2017-07-04T01:13:32.775Z,0
2017-07-04T01:13:58.924Z,0
2017-07-04T01:14:25.054Z,0
2017-07-04T01:14:51.193Z,0
2017-07-04T01:15:17.338Z,0
2017-07-04T01:15:43.471Z,0
2017-07-04T01:16:09.602Z,0
2017-07-04T01:16:35.751Z,0
2017-07-04T01:17:01.890Z,0
2017-07-04T01:17:28.019Z,0
2017-07-04T01:17:54.169Z,0
2017-07-04T01:18:20.305Z,0
2017-07-04T01:18:46.444Z,0
2017-07-04T01:19:12.578Z,0
2017-07-04T01:19:38.709Z,0
2017-07-04T01:20:04.858Z,0
2017-07-04T01:20:30.997Z,0
2017-07-04T01:20:57.129Z,0
2017-07-04T01:21:23.274Z,0
2017-07-04T01:21:49.412Z,0
2017-07-04T01:22:15.544Z,0
2017-07-04T01:22:41.688Z,0
2017-07-04T01:23:07.831Z,0
2017-07-04T01:23:33.960Z,0
2017-07-04T01:24:00.098Z,0
2017-07-04T01:24:26.235Z,0
2017-07-04T01:24:52.378Z,0
2017-07-04T01:25:18.521Z,0
2017-07-04T01:25:44.701Z,0
2017-07-04T01:26:10.796Z,0
2017-07-04T01:26:36.945Z,0
2017-07-04T01:27:03.072Z,0
2017-07-04T01:27:29.235Z,0
2017-07-04T01:27:55.378Z,0
2017-07-04T01:28:21.508Z,0
2017-07-04T01:28:47.646Z,0
2017-07-04T01:29:13.789Z,0
2017-07-04T01:29:39.921Z,0
2017-07-04T01:30:06.069Z,0
2017-07-04T01:30:32.195Z,0
2017-07-04T01:30:58.337Z,0
2017-07-04T01:31:24.482Z,0
2017-07-04T01:31:50.613Z,0
2017-07-04T01:32:16.745Z,0
2017-07-04T01:32:42.893Z,0
2017-07-04T01:33:09.051Z,0
2017-07-04T01:33:35.181Z,0
2017-07-04T01:34:01.328Z,0
2017-07-04T01:34:27.464Z,0
2017-07-04T01:34:53.595Z,0
2017-07-04T01:35:19.738Z,0
2017-07-04T01:35:45.872Z,0
2017-07-04T01:36:12.021Z,0
2017-07-04T01:36:38.154Z,0
2017-07-04T01:37:04.301Z,0
2017-07-04T01:37:30.452Z,0
2017-07-04T01:37:56.585Z,0
2017-07-04T01:38:22.719Z,0
2017-07-04T01:38:48.863Z,0
2017-07-04T01:39:15.005Z,0
2017-07-04T01:39:41.134Z,0
2017-07-04T01:40:07.277Z,0
2017-07-04T01:40:33.421Z,0
2017-07-04T01:40:59.556Z,0
2017-07-04T01:41:25.689Z,0
2017-07-04T01:41:51.816Z,0
2017-07-04T01:42:18.003Z,0
2017-07-04T01:42:44.105Z,0
2017-07-04T01:43:10.234Z,0
2017-07-04T01:43:36.375Z,0
2017-07-04T01:44:02.522Z,0
2017-07-04T01:44:28.647Z,0
2017-07-04T01:44:54.787Z,0
2017-07-04T01:45:20.931Z,0
2017-07-04T01:45:47.063Z,0
2017-07-04T01:46:13.201Z,0
2017-07-04T01:46:39.339Z,0
2017-07-04T01:47:05.480Z,0
2017-07-04T01:47:31.626Z,0
2017-07-04T01:47:57.753Z,0
2017-07-04T01:48:23.896Z,0
2017-07-04T01:48:50.042Z,0
2017-07-04T01:49:16.173Z,0
2017-07-04T01:49:42.308Z,0
2017-07-04T01:50:08.459Z,0
2017-07-04T01:50:34.596Z,0
2017-07-04T01:51:00.725Z,0
2017-07-04T01:51:26.900Z,0
2017-07-04T01:51:53.039Z,0
2017-07-04T01:52:19.184Z,0
2017-07-04T01:52:45.314Z,0
2017-07-04T01:53:11.452Z,0
2017-07-04T01:53:37.600Z,0
2017-07-04T01:54:03.735Z,0
2017-07-04T01:54:29.863Z,0
2017-07-04T01:54:56.041Z,0
2017-07-04T01:55:22.175Z,0
2017-07-04T01:55:48.322Z,0
2017-07-04T01:56:14.472Z,0
2017-07-04T01:56:40.613Z,0
2017-07-04T01:57:06.740Z,0
2017-07-04T01:57:32.881Z,0
2017-07-04T01:57:59.029Z,0
2017-07-04T01:58:25.158Z,0
2017-07-04T01:58:51.295Z,0
2017-07-04T01:59:17.444Z,0
2017-07-04T01:59:43.573Z,0
2017-07-04T02:00:09.710Z,0
2017-07-04T02:00:35.856Z,0
2017-07-04T02:01:01.992Z,0
2017-07-04T02:01:29.530Z,0
2017-07-04T02:01:55.665Z,0
2017-07-04T02:02:21.787Z,0
2017-07-04T02:02:47.907Z,0
2017-07-04T02:03:14.057Z,0
2017-07-04T02:03:40.179Z,0
2017-07-04T02:04:06.310Z,0
2017-07-04T02:04:32.430Z,0
2017-07-04T02:04:58.547Z,0
2017-07-04T02:05:24.699Z,0
2017-07-04T02:05:50.824Z,0
2017-07-04T02:06:16.939Z,0
2017-07-04T02:06:43.071Z,0
2017-07-04T02:07:09.197Z,0
2017-07-04T02:07:35.314Z,0
2017-07-04T02:08:01.446Z,0
2017-07-04T02:08:27.577Z,0
2017-07-04T02:08:53.696Z,0
2017-07-04T02:09:19.822Z,0
2017-07-04T02:09:45.980Z,0
2017-07-04T02:10:12.072Z,0
2017-07-04T02:10:38.195Z,0
2017-07-04T02:11:04.315Z,0
2017-07-04T02:11:30.444Z,0
2017-07-04T02:11:56.578Z,0
2017-07-04T02:12:22.691Z,0
2017-07-04T02:12:48.817Z,0
2017-07-04T02:13:14.949Z,0
2017-07-04T02:13:41.066Z,0
2017-07-04T02:14:07.187Z,0
2017-07-04T02:14:33.309Z,0
2017-07-04T02:14:59.439Z,0
2017-07-04T02:15:25.570Z,0
2017-07-04T02:15:51.683Z,0
2017-07-04T02:16:17.810Z,0
2017-07-04T02:16:43.941Z,0
2017-07-04T02:17:10.078Z,0
2017-07-04T02:17:36.200Z,0
2017-07-04T02:18:02.331Z,0
2017-07-04T02:18:28.452Z,0
2017-07-04T02:18:54.568Z,0
2017-07-04T02:19:20.703Z,0
2017-07-04T02:19:46.827Z,0
2017-07-04T02:20:12.957Z,0
2017-07-04T02:20:39.073Z,0
2017-07-04T02:21:05.197Z,0
2017-07-04T02:21:31.330Z,0
2017-07-04T02:21:57.470Z,0
2017-07-04T02:22:23.587Z,0
2017-07-04T02:22:49.719Z,0
2017-07-04T02:23:15.842Z,0
2017-07-04T02:23:41.955Z,0
2017-07-04T02:24:08.092Z,0
2017-07-04T02:24:34.218Z,0
2017-07-04T02:25:00.339Z,0
2017-07-04T02:25:26.468Z,0
2017-07-04T02:25:52.582Z,0
2017-07-04T02:26:18.719Z,0
2017-07-04T02:26:44.839Z,0
2017-07-04T02:27:10.958Z,0
2017-07-04T02:27:37.090Z,4
2017-07-04T02:28:03.218Z,4
2017-07-04T02:28:29.334Z,4
2017-07-04T02:28:55.462Z,4
2017-07-04T02:29:21.594Z,4
2017-07-04T02:29:47.708Z,4
2017-07-04T02:30:13.834Z,4
2017-07-04T02:30:39.965Z,4
2017-07-04T02:31:06.081Z,4
2017-07-04T02:31:32.211Z,4
2017-07-04T02:31:58.328Z,4
2017-07-04T02:32:24.455Z,0
2017-07-04T02:32:50.584Z,0
2017-07-04T02:33:16.697Z,0
2017-07-04T02:33:42.823Z,0
2017-07-04T02:34:08.956Z,0
2017-07-04T02:34:35.074Z,0
2017-07-04T02:35:01.197Z,4
2017-07-04T02:35:27.330Z,4
2017-07-04T02:35:53.449Z,4
2017-07-04T02:36:19.567Z,4
2017-07-04T02:36:45.696Z,4
2017-07-04T02:37:11.821Z,0
2017-07-04T02:37:37.953Z,4
2017-07-04T02:38:04.068Z,4
2017-07-04T02:38:30.190Z,4
2017-07-04T02:38:56.323Z,8
2017-07-04T02:39:22.442Z,4
2017-07-04T02:39:48.559Z,4
2017-07-04T02:40:14.694Z,4
2017-07-04T02:40:40.817Z,8
2017-07-04T02:41:06.934Z,4
2017-07-04T02:41:33.068Z,4
2017-07-04T02:41:59.190Z,8
2017-07-04T02:42:25.306Z,8
2017-07-04T02:42:51.434Z,8
2017-07-04T02:43:17.567Z,8
2017-07-04T02:43:43.680Z,8
2017-07-04T02:44:09.805Z,8
2017-07-04T02:44:35.936Z,8
2017-07-04T02:45:02.052Z,12
2017-07-04T02:45:28.175Z,8
2017-07-04T02:45:54.308Z,12
2017-07-04T02:46:20.428Z,8
2017-07-04T02:46:46.545Z,12
2017-07-04T02:47:12.680Z,12
2017-07-04T02:47:38.803Z,12
2017-07-04T02:48:04.932Z,12
2017-07-04T02:48:31.049Z,8
2017-07-04T02:48:57.173Z,12
2017-07-04T02:49:23.311Z,12
2017-07-04T02:49:49.431Z,12
2017-07-04T02:50:15.547Z,12
2017-07-04T02:50:41.682Z,16
2017-07-04T02:51:07.806Z,16
2017-07-04T02:51:33.922Z,12
2017-07-04T02:52:00.052Z,16
2017-07-04T02:52:26.177Z,16
2017-07-04T02:52:52.292Z,16
2017-07-04T02:53:18.420Z,16
2017-07-04T02:53:44.559Z,16
2017-07-04T02:54:10.692Z,16
2017-07-04T02:54:36.816Z,16
2017-07-04T02:55:02.937Z,20
2017-07-04T02:55:29.084Z,20
2017-07-04T02:55:55.208Z,20
2017-07-04T02:56:21.324Z,24
2017-07-04T02:56:47.452Z,20
2017-07-04T02:57:13.585Z,24
2017-07-04T02:57:39.697Z,28
2017-07-04T02:58:05.822Z,28
2017-07-04T02:58:31.954Z,28
2017-07-04T02:58:58.070Z,28
2017-07-04T02:59:24.199Z,28
2017-07-04T02:59:50.317Z,24
2017-07-04T03:00:16.447Z,24
2017-07-04T03:00:42.579Z,28
2017-07-04T03:01:08.694Z,32
2017-07-04T03:01:34.822Z,40
2017-07-04T03:02:00.955Z,44
2017-07-04T03:02:27.070Z,44
2017-07-04T03:02:53.193Z,44
2017-07-04T03:03:19.328Z,44
2017-07-04T03:03:45.447Z,40
2017-07-04T03:04:11.564Z,40
2017-07-04T03:04:37.693Z,40
2017-07-04T03:05:03.819Z,44
2017-07-04T03:05:29.949Z,52
2017-07-04T03:05:56.065Z,64
2017-07-04T03:06:22.187Z,68
2017-07-04T03:06:48.319Z,76
2017-07-04T03:07:14.439Z,84
2017-07-04T03:07:40.556Z,92
2017-07-04T03:08:06.694Z,92
2017-07-04T03:08:32.819Z,96
2017-07-04T03:08:58.933Z,100
2017-07-04T03:09:25.067Z,104
2017-07-04T03:09:51.215Z,112
2017-07-04T03:10:17.340Z,120
2017-07-04T03:10:43.461Z,124
2017-07-04T03:11:09.576Z,128
2017-07-04T03:11:35.709Z,136
2017-07-04T03:12:01.833Z,140
2017-07-04T03:12:27.950Z,144
2017-07-04T03:12:54.082Z,144
2017-07-04T03:13:20.209Z,136
2017-07-04T03:13:46.324Z,140
2017-07-04T03:14:12.455Z,144
2017-07-04T03:14:38.589Z,144
2017-07-04T03:15:04.704Z,144
2017-07-04T03:15:30.831Z,152
2017-07-04T03:15:56.949Z,156
2017-07-04T03:16:23.080Z,160
2017-07-04T03:16:49.203Z,176
2017-07-04T03:17:15.327Z,188
2017-07-04T03:17:41.450Z,200
2017-07-04T03:18:07.581Z,216
2017-07-04T03:18:33.752Z,228
2017-07-04T03:18:59.837Z,236
2017-07-04T03:19:25.969Z,244
2017-07-04T03:19:52.085Z,256
2017-07-04T03:20:18.210Z,264
2017-07-04T03:20:44.340Z,264
2017-07-04T03:21:10.457Z,272
2017-07-04T03:21:36.590Z,276
2017-07-04T03:22:02.702Z,288
2017-07-04T03:22:28.829Z,304
2017-07-04T03:22:54.961Z,316
2017-07-04T03:23:21.077Z,324
2017-07-04T03:23:47.197Z,324
2017-07-04T03:24:13.330Z,336
2017-07-04T03:24:39.447Z,340
2017-07-04T03:25:05.564Z,348
2017-07-04T03:25:31.698Z,336
2017-07-04T03:25:57.821Z,324
2017-07-04T03:26:23.939Z,324
2017-07-04T03:26:50.072Z,336
2017-07-04T03:27:16.197Z,328
2017-07-04T03:27:42.314Z,320
2017-07-04T03:28:08.444Z,320
2017-07-04T03:28:34.575Z,336
2017-07-04T03:29:00.687Z,360
2017-07-04T03:29:26.819Z,396
2017-07-04T03:29:52.950Z,436
2017-07-04T03:30:19.068Z,480
2017-07-04T03:30:45.192Z,528
2017-07-04T03:31:11.324Z,568
2017-07-04T03:31:37.444Z,576
2017-07-04T03:32:03.561Z,560
2017-07-04T03:32:29.693Z,556
2017-07-04T03:32:55.819Z,560
2017-07-04T03:33:21.950Z,544
2017-07-04T03:33:48.068Z,540
2017-07-04T03:34:14.211Z,572
2017-07-04T03:34:40.365Z,620
2017-07-04T03:35:06.484Z,648
2017-07-04T03:35:32.601Z,636
2017-07-04T03:35:58.736Z,632
2017-07-04T03:36:24.859Z,636
2017-07-04T03:36:50.973Z,608
2017-07-04T03:37:17.106Z,572
2017-07-04T03:37:43.232Z,588
2017-07-04T03:38:09.360Z,648
2017-07-04T03:38:35.480Z,712
2017-07-04T03:39:01.597Z,756
2017-07-04T03:39:27.733Z,792
2017-07-04T03:39:53.856Z,828
2017-07-04T03:40:19.974Z,868
2017-07-04T03:40:46.108Z,892
2017-07-04T03:41:12.234Z,888
2017-07-04T03:41:38.351Z,900
2017-07-04T03:42:04.480Z,916
2017-07-04T03:42:30.611Z,932
2017-07-04T03:42:56.725Z,960
2017-07-04T03:43:22.850Z,980
2017-07-04T03:43:48.969Z,936
2017-07-04T03:44:15.102Z,848
2017-07-04T03:44:41.228Z,724
2017-07-04T03:45:07.364Z,624
2017-07-04T03:45:33.494Z,572
2017-07-04T03:45:59.627Z,540
2017-07-04T03:46:25.741Z,528
2017-07-04T03:46:51.866Z,532
2017-07-04T03:47:17.996Z,536
2017-07-04T03:47:44.131Z,536
2017-07-04T03:48:10.255Z,544
2017-07-04T03:48:36.389Z,540
2017-07-04T03:49:02.509Z,544
2017-07-04T03:49:28.640Z,536
2017-07-04T03:49:54.754Z,556
2017-07-04T03:50:20.879Z,588
2017-07-04T03:50:47.009Z,624
2017-07-04T03:51:13.125Z,636
2017-07-04T03:51:39.249Z,680
2017-07-04T03:52:05.385Z,732
2017-07-04T03:52:31.591Z,800
2017-07-04T03:52:57.700Z,888
2017-07-04T03:53:23.836Z,928
2017-07-04T03:53:49.955Z,948
2017-07-04T03:54:16.072Z,984
2017-07-04T03:54:42.204Z,1004
2017-07-04T03:55:08.323Z,968
2017-07-04T03:55:34.457Z,920
2017-07-04T03:56:00.577Z,900
2017-07-04T03:56:26.692Z,908
2017-07-04T03:56:52.829Z,900
2017-07-04T03:57:18.955Z,884
2017-07-04T03:57:45.070Z,852
2017-07-04T03:58:11.201Z,804
2017-07-04T03:58:37.327Z,740
2017-07-04T03:59:03.442Z,676
2017-07-04T03:59:29.571Z,612
2017-07-04T03:59:55.710Z,556
2017-07-04T04:00:21.823Z,548
2017-07-04T04:00:47.944Z,572
2017-07-04T04:01:14.061Z,604
2017-07-04T04:01:40.197Z,596
2017-07-04T04:02:06.323Z,580
2017-07-04T04:02:32.439Z,572
2017-07-04T04:02:58.568Z,568
2017-07-04T04:03:24.700Z,576
2017-07-04T04:03:50.812Z,596
2017-07-04T04:04:16.942Z,652
2017-07-04T04:04:43.072Z,788
2017-07-04T04:05:09.189Z,900
2017-07-04T04:05:35.311Z,936
2017-07-04T04:06:01.433Z,964
2017-07-04T04:06:27.563Z,1028
2017-07-04T04:06:53.695Z,1084
2017-07-04T04:07:19.809Z,1092
2017-07-04T04:07:45.939Z,1064
2017-07-04T04:08:12.067Z,1020
2017-07-04T04:08:38.199Z,976
2017-07-04T04:09:04.322Z,972
2017-07-04T04:09:30.455Z,1032
2017-07-04T04:09:56.622Z,1076
2017-07-04T04:10:22.694Z,1168
2017-07-04T04:10:48.831Z,1260
2017-07-04T04:11:14.954Z,1320
2017-07-04T04:11:41.070Z,1340
2017-07-04T04:12:07.203Z,1372
2017-07-04T04:12:33.330Z,1428
2017-07-04T04:12:59.446Z,1544
2017-07-04T04:13:25.574Z,1700
2017-07-04T04:13:51.905Z,1868
2017-07-04T04:14:18.038Z,2048
2017-07-04T04:14:44.165Z,2244
2017-07-04T04:15:10.296Z,2436
2017-07-04T04:15:36.414Z,2608
2017-07-04T04:16:02.536Z,2776
2017-07-04T04:16:28.666Z,2944
2017-07-04T04:16:54.786Z,3064
2017-07-04T04:17:20.918Z,3132
2017-07-04T04:17:47.031Z,3180
2017-07-04T04:18:13.157Z,3208
2017-07-04T04:18:39.292Z,3212
2017-07-04T04:19:05.407Z,3212
2017-07-04T04:19:31.531Z,3236
2017-07-04T04:19:57.664Z,3328
2017-07-04T04:20:23.783Z,3504
2017-07-04T04:20:49.901Z,3684
2017-07-04T04:21:16.034Z,3904
2017-07-04T04:21:42.156Z,4160
2017-07-04T04:22:08.273Z,4400
2017-07-04T04:22:34.405Z,4604
2017-07-04T04:23:00.526Z,4804
2017-07-04T04:23:26.659Z,5004
2017-07-04T04:23:52.778Z,5176
2017-07-04T04:24:18.895Z,5296
2017-07-04T04:24:45.031Z,5372
2017-07-04T04:25:11.154Z,5436
2017-07-04T04:25:37.274Z,5512
2017-07-04T04:26:03.406Z,5644
2017-07-04T04:26:29.533Z,5828
2017-07-04T04:26:55.649Z,5988
2017-07-04T04:27:21.777Z,6128
2017-07-04T04:27:47.907Z,6212
2017-07-04T04:28:14.028Z,6236
2017-07-04T04:28:40.151Z,6228
2017-07-04T04:29:06.268Z,6144
2017-07-04T04:29:32.401Z,6012
2017-07-04T04:29:58.526Z,5928
2017-07-04T04:30:24.642Z,5932
2017-07-04T04:30:50.771Z,5940
2017-07-04T04:31:16.903Z,5932
2017-07-04T04:31:43.014Z,5924
2017-07-04T04:32:09.142Z,5880
2017-07-04T04:32:35.274Z,5880
2017-07-04T04:33:01.392Z,5972
2017-07-04T04:33:27.515Z,6108
2017-07-04T04:33:53.646Z,6244
2017-07-04T04:34:19.767Z,6468
2017-07-04T04:34:45.884Z,6660
2017-07-04T04:35:12.018Z,6744
2017-07-04T04:35:38.141Z,6756
2017-07-04T04:36:04.258Z,6744
2017-07-04T04:36:30.389Z,6756
2017-07-04T04:36:56.517Z,6824
2017-07-04T04:37:22.634Z,6972
2017-07-04T04:37:48.763Z,7136
2017-07-04T04:38:14.897Z,7260
2017-07-04T04:38:41.010Z,7388
2017-07-04T04:39:07.135Z,7528
2017-07-04T04:39:33.255Z,7660
2017-07-04T04:39:59.394Z,7796
2017-07-04T04:40:25.520Z,7904
2017-07-04T04:40:51.638Z,7968
2017-07-04T04:41:17.766Z,8020
2017-07-04T04:41:43.900Z,8168
2017-07-04T04:42:10.014Z,8412
2017-07-04T04:42:36.142Z,8624
2017-07-04T04:43:02.277Z,8648
2017-07-04T04:43:28.397Z,8412
2017-07-04T04:43:54.519Z,8180
2017-07-04T04:44:20.653Z,7996
2017-07-04T04:44:46.772Z,7916
2017-07-04T04:45:12.905Z,7808
2017-07-04T04:45:39.018Z,7752
2017-07-04T04:46:05.143Z,7868
2017-07-04T04:46:31.273Z,8208
2017-07-04T04:46:57.391Z,8452
2017-07-04T04:47:23.514Z,8408
2017-07-04T04:47:49.647Z,8080
2017-07-04T04:48:15.768Z,7768
2017-07-04T04:48:41.885Z,7564
2017-07-04T04:49:08.021Z,7332
2017-07-04T04:49:34.144Z,7148
2017-07-04T04:50:00.259Z,6888
2017-07-04T04:50:26.393Z,6532
2017-07-04T04:50:52.511Z,6616
2017-07-04T04:51:18.645Z,7120
2017-07-04T04:51:44.765Z,7464
2017-07-04T04:52:10.881Z,7388
2017-07-04T04:52:37.016Z,7496
2017-07-04T04:53:03.142Z,7224
2017-07-04T04:53:29.259Z,7108
2017-07-04T04:53:55.413Z,7124
2017-07-04T04:54:21.540Z,7192
2017-07-04T04:54:47.656Z,7548
2017-07-04T04:55:13.786Z,7752
2017-07-04T04:55:39.919Z,8084
2017-07-04T04:56:06.055Z,8784
2017-07-04T04:56:32.178Z,9848
2017-07-04T04:56:58.310Z,10160
2017-07-04T04:57:24.427Z,10012
2017-07-04T04:57:50.551Z,10580
2017-07-04T04:58:16.685Z,10560
2017-07-04T04:58:42.806Z,10748
2017-07-04T04:59:08.921Z,10432
2017-07-04T04:59:35.055Z,10640
2017-07-04T05:00:01.176Z,9488
2017-07-04T05:00:27.294Z,9904
2017-07-04T05:00:53.427Z,9756
2017-07-04T05:01:19.555Z,9152
2017-07-04T05:01:45.680Z,8128
2017-07-04T05:02:11.800Z,7036
2017-07-04T05:02:37.919Z,6508
2017-07-04T05:03:04.056Z,6404
2017-07-04T05:03:30.180Z,6412
2017-07-04T05:03:56.297Z,6448
2017-07-04T05:04:22.429Z,6484
2017-07-04T05:04:48.555Z,6432
2017-07-04T05:05:14.674Z,6284
2017-07-04T05:05:40.802Z,6124
2017-07-04T05:06:06.956Z,5820
2017-07-04T05:06:33.071Z,5432
2017-07-04T05:06:59.199Z,5024
2017-07-04T05:07:25.319Z,4580
2017-07-04T05:07:51.451Z,4180
2017-07-04T05:08:17.578Z,3864
2017-07-04T05:08:43.696Z,3636
2017-07-04T05:09:09.827Z,3512
2017-07-04T05:09:35.960Z,3400
2017-07-04T05:10:02.076Z,3240
2017-07-04T05:10:28.203Z,3108
2017-07-04T05:10:54.336Z,3008
2017-07-04T05:11:20.453Z,2856
2017-07-04T05:11:46.577Z,2668
2017-07-04T05:12:12.710Z,2528
2017-07-04T05:12:38.831Z,2516
2017-07-04T05:13:04.963Z,2528
2017-07-04T05:13:31.077Z,2484
2017-07-04T05:13:57.205Z,2420
2017-07-04T05:14:23.351Z,2356
2017-07-04T05:14:49.459Z,2360
2017-07-04T05:15:15.583Z,2416
2017-07-04T05:15:41.717Z,2552
2017-07-04T05:16:07.836Z,2620
2017-07-04T05:16:33.954Z,2632
2017-07-04T05:17:00.092Z,2696
2017-07-04T05:17:26.217Z,2812
2017-07-04T05:17:52.335Z,2900
2017-07-04T05:18:18.467Z,2864
2017-07-04T05:18:44.585Z,2820
2017-07-04T05:19:10.738Z,2932
2017-07-04T05:19:36.859Z,3144
2017-07-04T05:20:02.974Z,3392
2017-07-04T05:20:29.111Z,3564
2017-07-04T05:20:55.236Z,3668
2017-07-04T05:21:21.352Z,3552
2017-07-04T05:21:47.483Z,3368
2017-07-04T05:22:13.610Z,3328
2017-07-04T05:22:39.746Z,3472
2017-07-04T05:23:05.878Z,3768
2017-07-04T05:23:32.008Z,4168
2017-07-04T05:23:58.128Z,4500
2017-07-04T05:24:24.250Z,4656
2017-07-04T05:24:50.366Z,4796
2017-07-04T05:25:16.497Z,4928
2017-07-04T05:25:42.622Z,5040
2017-07-04T05:26:08.758Z,5224
2017-07-04T05:26:34.886Z,5416
2017-07-04T05:27:01.041Z,5672
2017-07-04T05:27:27.155Z,5960
2017-07-04T05:27:53.279Z,6268
2017-07-04T05:28:19.410Z,6528
2017-07-04T05:28:45.526Z,6740
2017-07-04T05:29:11.697Z,6908
2017-07-04T05:29:37.773Z,7004
2017-07-04T05:30:03.903Z,7044
2017-07-04T05:30:30.036Z,7076
2017-07-04T05:30:56.151Z,7124
2017-07-04T05:31:22.276Z,7212
2017-07-04T05:31:48.434Z,7344
2017-07-04T05:32:14.550Z,7436
2017-07-04T05:32:40.676Z,7476
2017-07-04T05:33:06.809Z,7508
2017-07-04T05:33:32.930Z,7636
2017-07-04T05:33:59.046Z,7780
2017-07-04T05:34:25.184Z,7912
2017-07-04T05:34:51.306Z,8116
2017-07-04T05:35:17.439Z,8028
2017-07-04T05:35:43.558Z,8068
2017-07-04T05:36:09.680Z,8024
2017-07-04T05:36:35.813Z,7892
2017-07-04T05:37:01.931Z,7800
2017-07-04T05:37:28.049Z,7728
2017-07-04T05:37:54.185Z,7692
2017-07-04T05:38:20.307Z,7632
2017-07-04T05:38:46.429Z,7648
2017-07-04T05:39:12.557Z,7768
2017-07-04T05:39:38.683Z,7900
2017-07-04T05:40:04.820Z,8036
2017-07-04T05:40:30.950Z,8188
2017-07-04T05:40:57.083Z,8352
2017-07-04T05:41:23.197Z,8476
2017-07-04T05:41:49.321Z,8632
2017-07-04T05:42:15.453Z,8816
2017-07-04T05:42:41.572Z,8996
2017-07-04T05:43:07.694Z,9184
2017-07-04T05:43:33.828Z,9368
2017-07-04T05:43:59.946Z,9508
2017-07-04T05:44:26.063Z,9584
2017-07-04T05:44:52.200Z,9620
2017-07-04T05:45:18.324Z,9616
2017-07-04T05:45:44.440Z,9572
2017-07-04T05:46:10.573Z,9500
2017-07-04T05:46:36.692Z,9452
2017-07-04T05:47:02.826Z,9444
2017-07-04T05:47:28.942Z,9472
2017-07-04T05:47:55.060Z,9516
2017-07-04T05:48:21.198Z,9528
2017-07-04T05:48:47.322Z,9468
2017-07-04T05:49:13.439Z,9312
2017-07-04T05:49:39.574Z,9128
2017-07-04T05:50:05.701Z,9016
2017-07-04T05:50:31.817Z,9000
2017-07-04T05:50:57.950Z,9080
2017-07-04T05:51:24.082Z,9188
2017-07-04T05:51:50.206Z,9276
2017-07-04T05:52:16.329Z,9372
2017-07-04T05:52:42.445Z,9504
2017-07-04T05:53:08.601Z,9748
2017-07-04T05:53:34.729Z,10092
2017-07-04T05:54:00.848Z,10464
2017-07-04T05:54:26.976Z,10752
2017-07-04T05:54:53.108Z,10960
2017-07-04T05:55:19.223Z,11084
2017-07-04T05:55:45.347Z,11240
2017-07-04T05:56:11.480Z,11436
2017-07-04T05:56:37.596Z,11600
2017-07-04T05:57:03.719Z,11700
2017-07-04T05:57:29.866Z,11684
2017-07-04T05:57:55.996Z,11500
2017-07-04T05:58:22.129Z,11168
2017-07-04T05:58:48.243Z,10804
2017-07-04T05:59:14.372Z,10448
2017-07-04T05:59:40.503Z,10128
2017-07-04T06:00:06.621Z,10000
2017-07-04T06:00:32.743Z,9984
2017-07-04T06:00:58.875Z,9832
2017-07-04T06:01:24.996Z,9516
2017-07-04T06:01:51.114Z,9032
2017-07-04T06:02:17.250Z,8524
2017-07-04T06:02:43.373Z,8076
2017-07-04T06:03:09.504Z,7776
2017-07-04T06:03:35.621Z,7412
2017-07-04T06:04:01.745Z,6920
2017-07-04T06:04:27.879Z,6500
2017-07-04T06:04:53.999Z,6400
2017-07-04T06:05:20.118Z,6508
2017-07-04T06:05:46.253Z,6672
2017-07-04T06:06:12.377Z,6788
2017-07-04T06:06:38.495Z,6584
2017-07-04T06:07:04.629Z,6064
2017-07-04T06:07:30.756Z,5492
2017-07-04T06:07:56.871Z,5180